sensor_id;sensor_type;location;lat;lon;timestamp;temperature;humidity
13123;DHT22;6627;50.920;12.050;2023-01-30T00:02:01;-1.70;1.00
13123;DHT22;6627;50.920;12.050;2023-01-30T00:04:28;-1.60;1.00
13123;DHT22;6627;50.920;12.050;2023-01-30T00:07:04;-1.60;99.90
13123;DHT22;6627;50.920;12.050;2023-01-30T00:09:35;-1.60;1.00
13123;DHT22;6627;50.920;12.050;2023-01-30T00:12:03;-1.50;99.90
13123;DHT22;6627;50.920;12.050;2023-01-30T00:14:30;-1.50;99.90
13123;DHT22;6627;50.920;12.050;2023-01-30T00:16:57;-1.40;99.90
13123;DHT22;6627;50.920;12.050;2023-01-30T00:19:45;-1.40;99.90
13123;DHT22;6627;50.920;12.050;2023-01-30T00:22:17;-1.30;99.90
13123;DHT22;6627;50.920;12.050;2023-01-30T00:24:45;-1.30;98.10
13123;DHT22;6627;50.920;12.050;2023-01-30T00:27:13;-1.30;99.90
13123;DHT22;6627;50.920;12.050;2023-01-30T00:29:40;-1.30;97.20
13123;DHT22;6627;50.920;12.050;2023-01-30T00:32:08;-1.20;99.90
13123;DHT22;6627;50.920;12.050;2023-01-30T00:34:36;-1.20;99.90
13123;DHT22;6627;50.920;12.050;2023-01-30T00:39:33;-1.20;99.90
13123;DHT22;6627;50.920;12.050;2023-01-30T00:42:00;-1.20;1.00
13123;DHT22;6627;50.920;12.050;2023-01-30T00:44:45;-1.10;1.00
13123;DHT22;6627;50.920;12.050;2023-01-30T00:47:37;-1.10;1.00
13123;DHT22;6627;50.920;12.050;2023-01-30T00:50:06;-1.00;1.00
13123;DHT22;6627;50.920;12.050;2023-01-30T00:52:36;-0.90;1.00
13123;DHT22;6627;50.920;12.050;2023-01-30T00:55:04;-0.90;19.30
13123;DHT22;6627;50.920;12.050;2023-01-30T00:57:32;-0.90;99.90
13123;DHT22;6627;50.920;12.050;2023-01-30T01:00:00;-0.80;1.00
13123;DHT22;6627;50.920;12.050;2023-01-30T01:02:30;-0.90;61.30
13123;DHT22;6627;50.920;12.050;2023-01-30T01:04:57;-0.80;1.00
13123;DHT22;6627;50.920;12.050;2023-01-30T01:07:24;-0.80;1.00
13123;DHT22;6627;50.920;12.050;2023-01-30T01:09:53;-0.70;1.00
13123;DHT22;6627;50.920;12.050;2023-01-30T01:12:21;-0.70;1.00
13123;DHT22;6627;50.920;12.050;2023-01-30T01:14:48;-0.70;1.00
13123;DHT22;6627;50.920;12.050;2023-01-30T01:17:15;-0.70;1.00
13123;DHT22;6627;50.920;12.050;2023-01-30T01:19:43;-0.50;99.90
13123;DHT22;6627;50.920;12.050;2023-01-30T01:22:10;-0.50;99.90
13123;DHT22;6627;50.920;12.050;2023-01-30T01:24:38;-0.50;1.00
13123;DHT22;6627;50.920;12.050;2023-01-30T01:27:07;-0.50;1.00
13123;DHT22;6627;50.920;12.050;2023-01-30T01:29:34;-0.40;1.00
13123;DHT22;6627;50.920;12.050;2023-01-30T01:32:01;-0.40;1.00
13123;DHT22;6627;50.920;12.050;2023-01-30T01:34:29;-0.40;1.00
13123;DHT22;6627;50.920;12.050;2023-01-30T01:36:56;-0.40;1.00
13123;DHT22;6627;50.920;12.050;2023-01-30T01:39:24;-0.30;1.00
13123;DHT22;6627;50.920;12.050;2023-01-30T01:42:12;-0.20;1.00
13123;DHT22;6627;50.920;12.050;2023-01-30T01:45:02;-0.20;1.00
13123;DHT22;6627;50.920;12.050;2023-01-30T01:47:44;-0.20;1.00
13123;DHT22;6627;50.920;12.050;2023-01-30T01:50:19;-0.10;1.00
13123;DHT22;6627;50.920;12.050;2023-01-30T01:52:51;-0.10;1.00
13123;DHT22;6627;50.920;12.050;2023-01-30T01:55:24;-0.10;1.00
13123;DHT22;6627;50.920;12.050;2023-01-30T01:58:00;-0.10;24.60
13123;DHT22;6627;50.920;12.050;2023-01-30T02:00:31;-0.10;99.90
13123;DHT22;6627;50.920;12.050;2023-01-30T02:03:03;0.00;99.90
13123;DHT22;6627;50.920;12.050;2023-01-30T02:05:34;0.00;99.90
13123;DHT22;6627;50.920;12.050;2023-01-30T02:08:07;0.10;99.90
13123;DHT22;6627;50.920;12.050;2023-01-30T02:10:42;0.10;99.90
13123;DHT22;6627;50.920;12.050;2023-01-30T02:13:16;0.10;45.30
13123;DHT22;6627;50.920;12.050;2023-01-30T02:15:44;0.20;1.00
13123;DHT22;6627;50.920;12.050;2023-01-30T02:18:12;0.20;99.90
13123;DHT22;6627;50.920;12.050;2023-01-30T02:20:56;0.20;99.90
13123;DHT22;6627;50.920;12.050;2023-01-30T02:23:56;0.30;11.60
13123;DHT22;6627;50.920;12.050;2023-01-30T02:27:05;0.30;5.10
13123;DHT22;6627;50.920;12.050;2023-01-30T02:30:08;0.40;1.00
13123;DHT22;6627;50.920;12.050;2023-01-30T02:32:54;0.50;99.90
13123;DHT22;6627;50.920;12.050;2023-01-30T02:35:36;0.50;99.90
13123;DHT22;6627;50.920;12.050;2023-01-30T02:38:22;0.50;1.00
13123;DHT22;6627;50.920;12.050;2023-01-30T02:41:11;0.50;1.00
13123;DHT22;6627;50.920;12.050;2023-01-30T02:43:57;0.50;1.00
13123;DHT22;6627;50.920;12.050;2023-01-30T02:46:34;0.60;1.00
13123;DHT22;6627;50.920;12.050;2023-01-30T02:49:13;0.60;1.00
13123;DHT22;6627;50.920;12.050;2023-01-30T02:51:48;0.60;1.00
13123;DHT22;6627;50.920;12.050;2023-01-30T02:54:17;0.70;1.00
13123;DHT22;6627;50.920;12.050;2023-01-30T02:56:46;0.70;99.90
13123;DHT22;6627;50.920;12.050;2023-01-30T02:59:19;0.70;99.90
13123;DHT22;6627;50.920;12.050;2023-01-30T03:02:16;0.80;99.90
13123;DHT22;6627;50.920;12.050;2023-01-30T03:05:12;0.70;99.90
13123;DHT22;6627;50.920;12.050;2023-01-30T03:08:02;0.80;99.90
13123;DHT22;6627;50.920;12.050;2023-01-30T03:10:45;0.80;1.00
13123;DHT22;6627;50.920;12.050;2023-01-30T03:13:22;0.90;1.00
13123;DHT22;6627;50.920;12.050;2023-01-30T03:16:01;0.90;1.00
13123;DHT22;6627;50.920;12.050;2023-01-30T03:18:32;0.90;1.00
13123;DHT22;6627;50.920;12.050;2023-01-30T03:21:05;0.90;99.90
13123;DHT22;6627;50.920;12.050;2023-01-30T03:23:34;0.90;1.00
13123;DHT22;6627;50.920;12.050;2023-01-30T03:26:03;0.90;1.00
13123;DHT22;6627;50.920;12.050;2023-01-30T03:28:33;0.90;1.00
13123;DHT22;6627;50.920;12.050;2023-01-30T03:31:01;0.90;1.00
13123;DHT22;6627;50.920;12.050;2023-01-30T03:33:28;0.90;1.00
13123;DHT22;6627;50.920;12.050;2023-01-30T03:35:56;0.90;1.00
13123;DHT22;6627;50.920;12.050;2023-01-30T03:38:25;0.90;99.30
13123;DHT22;6627;50.920;12.050;2023-01-30T03:40:52;1.00;1.00
13123;DHT22;6627;50.920;12.050;2023-01-30T03:43:21;1.00;1.00
13123;DHT22;6627;50.920;12.050;2023-01-30T03:48:17;1.10;99.90
13123;DHT22;6627;50.920;12.050;2023-01-30T03:50:44;1.00;1.00
13123;DHT22;6627;50.920;12.050;2023-01-30T03:53:11;1.10;1.00
13123;DHT22;6627;50.920;12.050;2023-01-30T03:55:40;1.10;1.00
13123;DHT22;6627;50.920;12.050;2023-01-30T03:58:10;1.10;1.00
13123;DHT22;6627;50.920;12.050;2023-01-30T04:00:37;1.10;1.00
13123;DHT22;6627;50.920;12.050;2023-01-30T04:03:05;1.00;33.10
13123;DHT22;6627;50.920;12.050;2023-01-30T04:05:32;1.00;99.90
13123;DHT22;6627;50.920;12.050;2023-01-30T04:08:00;1.10;99.90
13123;DHT22;6627;50.920;12.050;2023-01-30T04:10:27;1.10;99.90
13123;DHT22;6627;50.920;12.050;2023-01-30T04:12:56;1.10;1.00
13123;DHT22;6627;50.920;12.050;2023-01-30T04:15:24;1.10;1.00
13123;DHT22;6627;50.920;12.050;2023-01-30T04:17:54;1.10;1.00
13123;DHT22;6627;50.920;12.050;2023-01-30T04:20:21;1.20;1.00
13123;DHT22;6627;50.920;12.050;2023-01-30T04:22:50;1.20;1.00
13123;DHT22;6627;50.920;12.050;2023-01-30T04:25:17;1.20;1.00
13123;DHT22;6627;50.920;12.050;2023-01-30T04:27:44;1.20;1.00
13123;DHT22;6627;50.920;12.050;2023-01-30T04:30:13;1.20;1.00
13123;DHT22;6627;50.920;12.050;2023-01-30T04:32:42;1.30;1.00
13123;DHT22;6627;50.920;12.050;2023-01-30T04:35:10;1.30;1.00
13123;DHT22;6627;50.920;12.050;2023-01-30T04:37:37;1.40;1.00
13123;DHT22;6627;50.920;12.050;2023-01-30T04:40:07;1.40;1.00
13123;DHT22;6627;50.920;12.050;2023-01-30T04:42:35;1.40;1.00
13123;DHT22;6627;50.920;12.050;2023-01-30T04:45:02;1.40;1.00
13123;DHT22;6627;50.920;12.050;2023-01-30T04:47:31;1.40;1.00
13123;DHT22;6627;50.920;12.050;2023-01-30T04:49:59;1.40;99.90
13123;DHT22;6627;50.920;12.050;2023-01-30T04:52:27;1.40;1.00
13123;DHT22;6627;50.920;12.050;2023-01-30T04:54:54;1.40;99.90
13123;DHT22;6627;50.920;12.050;2023-01-30T04:57:21;1.40;99.90
13123;DHT22;6627;50.920;12.050;2023-01-30T04:59:49;1.40;99.90
13123;DHT22;6627;50.920;12.050;2023-01-30T05:02:16;1.40;99.90
13123;DHT22;6627;50.920;12.050;2023-01-30T05:04:47;1.50;99.90
13123;DHT22;6627;50.920;12.050;2023-01-30T05:07:16;1.50;1.00
13123;DHT22;6627;50.920;12.050;2023-01-30T05:09:43;1.40;99.90
13123;DHT22;6627;50.920;12.050;2023-01-30T05:12:11;1.40;1.00
13123;DHT22;6627;50.920;12.050;2023-01-30T05:14:39;1.40;1.00
13123;DHT22;6627;50.920;12.050;2023-01-30T05:17:06;1.50;1.00
13123;DHT22;6627;50.920;12.050;2023-01-30T05:19:34;1.50;1.00
13123;DHT22;6627;50.920;12.050;2023-01-30T05:22:03;1.50;1.00
13123;DHT22;6627;50.920;12.050;2023-01-30T05:24:31;1.50;1.00
13123;DHT22;6627;50.920;12.050;2023-01-30T05:26:58;1.50;1.00
13123;DHT22;6627;50.920;12.050;2023-01-30T05:29:25;1.60;1.00
13123;DHT22;6627;50.920;12.050;2023-01-30T05:31:54;1.60;1.00
13123;DHT22;6627;50.920;12.050;2023-01-30T05:34:21;1.50;31.40
13123;DHT22;6627;50.920;12.050;2023-01-30T05:36:50;1.60;99.90
13123;DHT22;6627;50.920;12.050;2023-01-30T05:39:19;1.60;1.00
13123;DHT22;6627;50.920;12.050;2023-01-30T05:41:46;1.60;1.00
13123;DHT22;6627;50.920;12.050;2023-01-30T05:44:14;1.60;55.60
13123;DHT22;6627;50.920;12.050;2023-01-30T05:46:41;1.70;99.90
13123;DHT22;6627;50.920;12.050;2023-01-30T05:49:09;1.70;99.90
13123;DHT22;6627;50.920;12.050;2023-01-30T05:51:37;1.70;99.90
13123;DHT22;6627;50.920;12.050;2023-01-30T05:54:05;1.70;99.90
13123;DHT22;6627;50.920;12.050;2023-01-30T05:56:34;1.70;1.00
13123;DHT22;6627;50.920;12.050;2023-01-30T05:59:02;1.70;1.00
13123;DHT22;6627;50.920;12.050;2023-01-30T06:01:30;1.70;1.00
13123;DHT22;6627;50.920;12.050;2023-01-30T06:03:59;1.70;1.00
13123;DHT22;6627;50.920;12.050;2023-01-30T06:06:27;1.60;97.80
13123;DHT22;6627;50.920;12.050;2023-01-30T06:08:55;1.80;99.90
13123;DHT22;6627;50.920;12.050;2023-01-30T06:11:24;1.90;99.90
13123;DHT22;6627;50.920;12.050;2023-01-30T06:13:54;1.90;99.90
13123;DHT22;6627;50.920;12.050;2023-01-30T06:16:22;1.90;99.90
13123;DHT22;6627;50.920;12.050;2023-01-30T06:18:49;2.00;99.90
13123;DHT22;6627;50.920;12.050;2023-01-30T06:21:17;2.00;99.90
13123;DHT22;6627;50.920;12.050;2023-01-30T06:23:44;2.10;40.70
13123;DHT22;6627;50.920;12.050;2023-01-30T06:26:12;2.10;10.30
13123;DHT22;6627;50.920;12.050;2023-01-30T06:28:39;2.10;1.00
13123;DHT22;6627;50.920;12.050;2023-01-30T06:31:09;2.10;1.00
13123;DHT22;6627;50.920;12.050;2023-01-30T06:33:37;2.10;1.00
13123;DHT22;6627;50.920;12.050;2023-01-30T06:36:07;2.10;1.00
13123;DHT22;6627;50.920;12.050;2023-01-30T06:38:35;2.10;1.00
13123;DHT22;6627;50.920;12.050;2023-01-30T06:41:03;2.20;1.00
13123;DHT22;6627;50.920;12.050;2023-01-30T06:43:30;2.20;1.00
13123;DHT22;6627;50.920;12.050;2023-01-30T06:45:58;2.20;1.00
13123;DHT22;6627;50.920;12.050;2023-01-30T06:48:28;2.20;1.00
13123;DHT22;6627;50.920;12.050;2023-01-30T06:50:56;2.20;1.00
13123;DHT22;6627;50.920;12.050;2023-01-30T06:53:23;2.30;1.00
13123;DHT22;6627;50.920;12.050;2023-01-30T06:55:56;2.30;1.00
13123;DHT22;6627;50.920;12.050;2023-01-30T06:58:24;2.30;1.00
13123;DHT22;6627;50.920;12.050;2023-01-30T07:00:52;2.30;1.00
13123;DHT22;6627;50.920;12.050;2023-01-30T07:03:20;2.30;1.00
13123;DHT22;6627;50.920;12.050;2023-01-30T07:05:49;2.30;1.00
13123;DHT22;6627;50.920;12.050;2023-01-30T07:08:17;2.30;1.00
13123;DHT22;6627;50.920;12.050;2023-01-30T07:10:48;2.40;1.00
13123;DHT22;6627;50.920;12.050;2023-01-30T07:13:15;2.40;1.00
13123;DHT22;6627;50.920;12.050;2023-01-30T07:15:44;2.40;1.00
13123;DHT22;6627;50.920;12.050;2023-01-30T07:18:12;2.40;1.00
13123;DHT22;6627;50.920;12.050;2023-01-30T07:20:40;2.40;1.00
13123;DHT22;6627;50.920;12.050;2023-01-30T07:23:09;2.40;1.00
13123;DHT22;6627;50.920;12.050;2023-01-30T07:25:37;2.40;1.00
13123;DHT22;6627;50.920;12.050;2023-01-30T07:30:33;2.40;1.00
13123;DHT22;6627;50.920;12.050;2023-01-30T07:33:03;2.40;1.00
13123;DHT22;6627;50.920;12.050;2023-01-30T07:35:33;2.40;1.00
13123;DHT22;6627;50.920;12.050;2023-01-30T07:38:02;2.40;1.00
13123;DHT22;6627;50.920;12.050;2023-01-30T07:40:32;2.40;1.00
13123;DHT22;6627;50.920;12.050;2023-01-30T07:43:01;2.30;1.00
13123;DHT22;6627;50.920;12.050;2023-01-30T07:45:34;2.40;1.00
13123;DHT22;6627;50.920;12.050;2023-01-30T07:48:04;2.40;1.00
13123;DHT22;6627;50.920;12.050;2023-01-30T07:50:32;2.40;1.00
13123;DHT22;6627;50.920;12.050;2023-01-30T07:53:02;2.40;1.00
13123;DHT22;6627;50.920;12.050;2023-01-30T07:55:29;2.50;1.00
13123;DHT22;6627;50.920;12.050;2023-01-30T07:57:58;2.40;1.00
13123;DHT22;6627;50.920;12.050;2023-01-30T08:00:26;2.50;1.00
13123;DHT22;6627;50.920;12.050;2023-01-30T08:02:54;2.50;1.00
13123;DHT22;6627;50.920;12.050;2023-01-30T08:05:23;2.60;1.00
13123;DHT22;6627;50.920;12.050;2023-01-30T08:07:50;2.50;1.00
13123;DHT22;6627;50.920;12.050;2023-01-30T08:10:19;2.50;1.00
13123;DHT22;6627;50.920;12.050;2023-01-30T08:12:48;2.50;1.00
13123;DHT22;6627;50.920;12.050;2023-01-30T08:15:20;2.60;1.00
13123;DHT22;6627;50.920;12.050;2023-01-30T08:17:52;2.60;1.30
13123;DHT22;6627;50.920;12.050;2023-01-30T08:20:21;2.60;36.80
13123;DHT22;6627;50.920;12.050;2023-01-30T08:22:49;2.60;71.70
13123;DHT22;6627;50.920;12.050;2023-01-30T08:25:16;2.70;90.10
13123;DHT22;6627;50.920;12.050;2023-01-30T08:27:57;2.70;96.40
13123;DHT22;6627;50.920;12.050;2023-01-30T08:30:27;2.70;99.90
13123;DHT22;6627;50.920;12.050;2023-01-30T08:32:57;2.80;99.90
13123;DHT22;6627;50.920;12.050;2023-01-30T08:35:24;2.80;91.10
13123;DHT22;6627;50.920;12.050;2023-01-30T08:37:53;2.80;99.90
13123;DHT22;6627;50.920;12.050;2023-01-30T08:40:21;2.80;99.90
13123;DHT22;6627;50.920;12.050;2023-01-30T08:42:48;2.80;99.90
13123;DHT22;6627;50.920;12.050;2023-01-30T08:45:15;3.00;1.00
13123;DHT22;6627;50.920;12.050;2023-01-30T08:47:44;3.00;1.00
13123;DHT22;6627;50.920;12.050;2023-01-30T08:50:11;3.00;1.00
13123;DHT22;6627;50.920;12.050;2023-01-30T08:55:07;3.00;1.00
13123;DHT22;6627;50.920;12.050;2023-01-30T08:57:37;3.10;1.00
13123;DHT22;6627;50.920;12.050;2023-01-30T09:00:06;3.10;1.00
13123;DHT22;6627;50.920;12.050;2023-01-30T09:02:35;3.20;1.00
13123;DHT22;6627;50.920;12.050;2023-01-30T09:05:06;3.20;1.00
13123;DHT22;6627;50.920;12.050;2023-01-30T09:07:36;3.30;99.90
13123;DHT22;6627;50.920;12.050;2023-01-30T09:10:05;3.40;1.00
13123;DHT22;6627;50.920;12.050;2023-01-30T09:12:33;3.40;1.00
13123;DHT22;6627;50.920;12.050;2023-01-30T09:15:01;3.50;99.90
13123;DHT22;6627;50.920;12.050;2023-01-30T09:17:28;3.50;99.90
13123;DHT22;6627;50.920;12.050;2023-01-30T09:19:56;3.40;1.00
13123;DHT22;6627;50.920;12.050;2023-01-30T09:22:26;3.40;99.90
13123;DHT22;6627;50.920;12.050;2023-01-30T09:24:53;3.40;1.00
13123;DHT22;6627;50.920;12.050;2023-01-30T09:27:20;3.30;1.00
13123;DHT22;6627;50.920;12.050;2023-01-30T09:29:48;3.40;1.00
13123;DHT22;6627;50.920;12.050;2023-01-30T09:32:15;3.40;1.00
13123;DHT22;6627;50.920;12.050;2023-01-30T09:34:42;3.40;1.00
13123;DHT22;6627;50.920;12.050;2023-01-30T09:37:10;3.40;1.00
13123;DHT22;6627;50.920;12.050;2023-01-30T09:39:38;3.40;1.00
13123;DHT22;6627;50.920;12.050;2023-01-30T09:42:34;3.40;1.00
13123;DHT22;6627;50.920;12.050;2023-01-30T09:45:36;3.30;1.00
13123;DHT22;6627;50.920;12.050;2023-01-30T09:48:20;3.30;78.10
13123;DHT22;6627;50.920;12.050;2023-01-30T09:51:18;3.30;99.90
13123;DHT22;6627;50.920;12.050;2023-01-30T09:54:03;3.30;99.90
13123;DHT22;6627;50.920;12.050;2023-01-30T09:56:43;3.30;99.90
13123;DHT22;6627;50.920;12.050;2023-01-30T09:59:18;3.30;99.90
13123;DHT22;6627;50.920;12.050;2023-01-30T10:02:00;3.40;99.90
13123;DHT22;6627;50.920;12.050;2023-01-30T10:04:49;3.50;99.90
13123;DHT22;6627;50.920;12.050;2023-01-30T10:07:25;3.40;99.90
13123;DHT22;6627;50.920;12.050;2023-01-30T10:10:07;3.40;99.90
13123;DHT22;6627;50.920;12.050;2023-01-30T10:12:53;3.50;99.90
13123;DHT22;6627;50.920;12.050;2023-01-30T10:15:40;3.50;96.80
13123;DHT22;6627;50.920;12.050;2023-01-30T10:18:39;3.50;94.10
13123;DHT22;6627;50.920;12.050;2023-01-30T10:21:26;3.60;16.50
13123;DHT22;6627;50.920;12.050;2023-01-30T10:24:19;3.60;32.90
13123;DHT22;6627;50.920;12.050;2023-01-30T10:27:01;3.60;57.40
13123;DHT22;6627;50.920;12.050;2023-01-30T10:29:35;3.50;99.90
13123;DHT22;6627;50.920;12.050;2023-01-30T10:32:10;3.50;99.90
13123;DHT22;6627;50.920;12.050;2023-01-30T10:34:44;3.50;99.90
13123;DHT22;6627;50.920;12.050;2023-01-30T10:37:18;3.50;99.90
13123;DHT22;6627;50.920;12.050;2023-01-30T10:40:06;3.50;99.90
13123;DHT22;6627;50.920;12.050;2023-01-30T10:42:48;3.50;99.90
13123;DHT22;6627;50.920;12.050;2023-01-30T10:45:28;3.50;99.90
13123;DHT22;6627;50.920;12.050;2023-01-30T10:48:17;3.40;99.90
13123;DHT22;6627;50.920;12.050;2023-01-30T10:50:52;3.40;99.90
13123;DHT22;6627;50.920;12.050;2023-01-30T10:53:27;3.30;99.90
13123;DHT22;6627;50.920;12.050;2023-01-30T10:56:07;3.30;99.90
13123;DHT22;6627;50.920;12.050;2023-01-30T10:58:46;3.30;99.90
13123;DHT22;6627;50.920;12.050;2023-01-30T11:01:24;3.30;99.90
13123;DHT22;6627;50.920;12.050;2023-01-30T11:04:01;3.30;99.90
13123;DHT22;6627;50.920;12.050;2023-01-30T11:06:31;3.20;99.90
13123;DHT22;6627;50.920;12.050;2023-01-30T11:09:01;3.30;99.90
13123;DHT22;6627;50.920;12.050;2023-01-30T11:11:41;3.30;99.90
13123;DHT22;6627;50.920;12.050;2023-01-30T11:14:14;3.40;99.90
13123;DHT22;6627;50.920;12.050;2023-01-30T11:16:46;3.50;99.90
13123;DHT22;6627;50.920;12.050;2023-01-30T11:19:17;3.50;99.90
13123;DHT22;6627;50.920;12.050;2023-01-30T11:21:47;3.50;99.90
13123;DHT22;6627;50.920;12.050;2023-01-30T11:24:20;3.50;99.90
13123;DHT22;6627;50.920;12.050;2023-01-30T11:26:50;3.50;99.90
13123;DHT22;6627;50.920;12.050;2023-01-30T11:29:26;3.60;99.90
13123;DHT22;6627;50.920;12.050;2023-01-30T11:32:00;3.60;99.90
13123;DHT22;6627;50.920;12.050;2023-01-30T11:34:29;3.80;99.90
13123;DHT22;6627;50.920;12.050;2023-01-30T11:37:12;3.80;99.90
13123;DHT22;6627;50.920;12.050;2023-01-30T11:39:48;3.90;99.90
13123;DHT22;6627;50.920;12.050;2023-01-30T11:42:19;4.00;99.90
13123;DHT22;6627;50.920;12.050;2023-01-30T11:44:55;4.00;99.90
13123;DHT22;6627;50.920;12.050;2023-01-30T11:47:27;4.10;99.90
13123;DHT22;6627;50.920;12.050;2023-01-30T11:49:57;4.10;99.90
13123;DHT22;6627;50.920;12.050;2023-01-30T11:52:29;4.10;99.90
13123;DHT22;6627;50.920;12.050;2023-01-30T11:55:05;4.10;99.90
13123;DHT22;6627;50.920;12.050;2023-01-30T11:57:42;4.10;99.90
13123;DHT22;6627;50.920;12.050;2023-01-30T12:00:15;4.10;99.90
13123;DHT22;6627;50.920;12.050;2023-01-30T12:02:49;4.10;99.90
13123;DHT22;6627;50.920;12.050;2023-01-30T12:05:23;4.20;99.90
13123;DHT22;6627;50.920;12.050;2023-01-30T12:08:12;4.30;99.90
13123;DHT22;6627;50.920;12.050;2023-01-30T12:10:52;4.40;99.90
13123;DHT22;6627;50.920;12.050;2023-01-30T12:13:27;4.50;99.90
13123;DHT22;6627;50.920;12.050;2023-01-30T12:16:14;4.40;99.90
13123;DHT22;6627;50.920;12.050;2023-01-30T12:18:52;4.30;99.90
13123;DHT22;6627;50.920;12.050;2023-01-30T12:21:33;4.30;99.90
13123;DHT22;6627;50.920;12.050;2023-01-30T12:24:15;4.40;99.90
13123;DHT22;6627;50.920;12.050;2023-01-30T12:26:54;4.40;99.90
13123;DHT22;6627;50.920;12.050;2023-01-30T12:29:28;4.40;99.90
13123;DHT22;6627;50.920;12.050;2023-01-30T12:32:06;4.40;99.90
13123;DHT22;6627;50.920;12.050;2023-01-30T12:34:40;4.50;99.90
13123;DHT22;6627;50.920;12.050;2023-01-30T12:37:26;4.50;99.90
13123;DHT22;6627;50.920;12.050;2023-01-30T12:40:08;4.60;99.90
13123;DHT22;6627;50.920;12.050;2023-01-30T12:43:06;4.50;99.90
13123;DHT22;6627;50.920;12.050;2023-01-30T12:45:56;4.60;99.90
13123;DHT22;6627;50.920;12.050;2023-01-30T12:48:46;4.60;99.90
13123;DHT22;6627;50.920;12.050;2023-01-30T12:51:39;4.60;99.90
13123;DHT22;6627;50.920;12.050;2023-01-30T12:54:29;4.50;99.90
13123;DHT22;6627;50.920;12.050;2023-01-30T12:57:12;4.50;99.90
13123;DHT22;6627;50.920;12.050;2023-01-30T13:00:00;4.60;99.90
13123;DHT22;6627;50.920;12.050;2023-01-30T13:02:49;4.60;99.90
13123;DHT22;6627;50.920;12.050;2023-01-30T13:05:33;4.70;2.70
13123;DHT22;6627;50.920;12.050;2023-01-30T13:08:20;4.70;1.00
13123;DHT22;6627;50.920;12.050;2023-01-30T13:11:12;4.80;1.00
13123;DHT22;6627;50.920;12.050;2023-01-30T13:13:58;4.90;1.00
13123;DHT22;6627;50.920;12.050;2023-01-30T13:16:39;4.90;1.00
13123;DHT22;6627;50.920;12.050;2023-01-30T13:19:24;5.00;99.90
13123;DHT22;6627;50.920;12.050;2023-01-30T13:22:04;5.30;1.00
13123;DHT22;6627;50.920;12.050;2023-01-30T13:24:47;5.40;1.00
13123;DHT22;6627;50.920;12.050;2023-01-30T13:27:26;5.60;1.00
13123;DHT22;6627;50.920;12.050;2023-01-30T13:30:01;5.50;99.90
13123;DHT22;6627;50.920;12.050;2023-01-30T13:32:36;5.50;1.00
13123;DHT22;6627;50.920;12.050;2023-01-30T13:35:14;5.40;1.00
13123;DHT22;6627;50.920;12.050;2023-01-30T13:37:47;5.30;81.40
13123;DHT22;6627;50.920;12.050;2023-01-30T13:40:21;5.20;1.00
13123;DHT22;6627;50.920;12.050;2023-01-30T13:42:55;5.20;1.00
13123;DHT22;6627;50.920;12.050;2023-01-30T13:45:30;5.00;1.00
13123;DHT22;6627;50.920;12.050;2023-01-30T13:48:12;4.90;99.90
13123;DHT22;6627;50.920;12.050;2023-01-30T13:51:16;4.80;99.90
13123;DHT22;6627;50.920;12.050;2023-01-30T13:53:57;4.80;99.90
13123;DHT22;6627;50.920;12.050;2023-01-30T13:56:39;4.80;90.10
13123;DHT22;6627;50.920;12.050;2023-01-30T13:59:17;4.80;1.00
13123;DHT22;6627;50.920;12.050;2023-01-30T14:02:17;4.80;98.80
13123;DHT22;6627;50.920;12.050;2023-01-30T14:04:49;4.80;99.90
13123;DHT22;6627;50.920;12.050;2023-01-30T14:07:23;4.80;99.90
13123;DHT22;6627;50.920;12.050;2023-01-30T14:10:13;4.80;1.00
13123;DHT22;6627;50.920;12.050;2023-01-30T14:12:45;4.80;99.90
13123;DHT22;6627;50.920;12.050;2023-01-30T14:15:24;4.80;99.90
13123;DHT22;6627;50.920;12.050;2023-01-30T14:17:58;4.90;99.90
13123;DHT22;6627;50.920;12.050;2023-01-30T14:20:31;4.90;1.00
13123;DHT22;6627;50.920;12.050;2023-01-30T14:23:02;4.80;60.30
13123;DHT22;6627;50.920;12.050;2023-01-30T14:25:46;4.90;1.00
13123;DHT22;6627;50.920;12.050;2023-01-30T14:28:50;5.00;99.90
13123;DHT22;6627;50.920;12.050;2023-01-30T14:31:51;5.00;22.10
13123;DHT22;6627;50.920;12.050;2023-01-30T14:34:41;5.00;1.00
13123;DHT22;6627;50.920;12.050;2023-01-30T14:37:47;5.10;1.00
13123;DHT22;6627;50.920;12.050;2023-01-30T14:40:38;5.10;1.00
13123;DHT22;6627;50.920;12.050;2023-01-30T14:43:50;5.20;99.90
13123;DHT22;6627;50.920;12.050;2023-01-30T14:49:28;5.30;1.00
13123;DHT22;6627;50.920;12.050;2023-01-30T14:51:59;5.20;1.00
13123;DHT22;6627;50.920;12.050;2023-01-30T14:54:32;5.20;1.00
13123;DHT22;6627;50.920;12.050;2023-01-30T14:57:17;5.10;1.00
13123;DHT22;6627;50.920;12.050;2023-01-30T14:59:52;5.10;99.90
13123;DHT22;6627;50.920;12.050;2023-01-30T15:02:39;5.10;99.90
13123;DHT22;6627;50.920;12.050;2023-01-30T15:05:12;5.20;57.30
13123;DHT22;6627;50.920;12.050;2023-01-30T15:07:47;5.10;99.90
13123;DHT22;6627;50.920;12.050;2023-01-30T15:10:37;5.10;90.80
13123;DHT22;6627;50.920;12.050;2023-01-30T15:13:38;5.10;1.00
13123;DHT22;6627;50.920;12.050;2023-01-30T15:16:44;5.00;1.00
13123;DHT22;6627;50.920;12.050;2023-01-30T15:19:51;5.10;99.90
13123;DHT22;6627;50.920;12.050;2023-01-30T15:22:37;5.00;99.90
13123;DHT22;6627;50.920;12.050;2023-01-30T15:25:29;5.10;70.00
13123;DHT22;6627;50.920;12.050;2023-01-30T15:28:21;5.10;91.70
13123;DHT22;6627;50.920;12.050;2023-01-30T15:31:05;5.00;1.00
13123;DHT22;6627;50.920;12.050;2023-01-30T15:33:44;5.00;1.00
13123;DHT22;6627;50.920;12.050;2023-01-30T15:36:24;5.10;1.00
13123;DHT22;6627;50.920;12.050;2023-01-30T15:41:29;5.00;1.00
13123;DHT22;6627;50.920;12.050;2023-01-30T15:50:23;5.00;1.00
13123;DHT22;6627;50.920;12.050;2023-01-30T15:52:51;5.00;1.00
13123;DHT22;6627;50.920;12.050;2023-01-30T15:57:55;5.00;99.90
13123;DHT22;6627;50.920;12.050;2023-01-30T16:00:27;5.00;99.90
13123;DHT22;6627;50.920;12.050;2023-01-30T16:02:57;5.10;99.90
13123;DHT22;6627;50.920;12.050;2023-01-30T16:05:29;5.10;99.90
13123;DHT22;6627;50.920;12.050;2023-01-30T16:08:09;5.10;99.90
13123;DHT22;6627;50.920;12.050;2023-01-30T16:10:46;5.20;99.90
13123;DHT22;6627;50.920;12.050;2023-01-30T16:13:16;5.10;99.90
13123;DHT22;6627;50.920;12.050;2023-01-30T16:15:48;5.00;99.90
13123;DHT22;6627;50.920;12.050;2023-01-30T16:18:28;5.00;99.90
13123;DHT22;6627;50.920;12.050;2023-01-30T16:21:02;5.00;99.90
13123;DHT22;6627;50.920;12.050;2023-01-30T16:26:05;5.00;1.00
13123;DHT22;6627;50.920;12.050;2023-01-30T16:28:39;5.00;1.00
13123;DHT22;6627;50.920;12.050;2023-01-30T16:31:09;5.00;1.00
13123;DHT22;6627;50.920;12.050;2023-01-30T16:36:37;5.10;99.90
13123;DHT22;6627;50.920;12.050;2023-01-30T16:41:53;5.00;1.00
13123;DHT22;6627;50.920;12.050;2023-01-30T16:46:58;5.00;99.90
13123;DHT22;6627;50.920;12.050;2023-01-30T16:49:38;5.00;99.90
13123;DHT22;6627;50.920;12.050;2023-01-30T16:52:18;5.00;99.90
13123;DHT22;6627;50.920;12.050;2023-01-30T16:54:50;5.00;99.90
13123;DHT22;6627;50.920;12.050;2023-01-30T16:57:28;5.10;99.90
13123;DHT22;6627;50.920;12.050;2023-01-30T17:00:06;5.10;99.90
13123;DHT22;6627;50.920;12.050;2023-01-30T17:02:49;5.00;99.90
13123;DHT22;6627;50.920;12.050;2023-01-30T17:05:21;4.90;99.90
13123;DHT22;6627;50.920;12.050;2023-01-30T17:07:53;4.90;99.90
13123;DHT22;6627;50.920;12.050;2023-01-30T17:13:31;4.80;99.90
13123;DHT22;6627;50.920;12.050;2023-01-30T17:16:34;4.80;99.90
13123;DHT22;6627;50.920;12.050;2023-01-30T17:19:02;4.80;1.00